Time;durP1;ratioP1;P1;durP2;ratioP2;P2;SDS_P1;SDS_P2;PMS_P1;PMS_P2;Temp;Humidity;BMP_temperature;BMP_pressure;BME280_temperature;BME280_humidity;BME280_pressure;Samples;Min_cycle;Max_cycle;Signal;HPM_P1;HPM_P2
2022/07/12 00:01:30;;;;;;;7.30;2.50;;;;;;;15.95;76.66;99074.77;25057;1316;3026339;-64
2022/07/12 00:03:59;;;;;;;8.70;2.80;;;;;;;16.51;75.59;99074.83;25068;1316;3069729;-64
2022/07/12 00:06:27;;;;;;;9.30;2.50;;;;;;;16.80;74.00;99068.11;25042;1316;3026472;-63
2022/07/12 00:08:56;;;;;;;7.40;2.60;;;;;;;16.46;74.78;99068.59;25090;1316;3053671;-64
2022/07/12 00:11:25;;;;;;;10.70;3.00;;;;;;;16.36;74.57;99073.91;25062;1316;3026624;-63
2022/07/12 00:13:56;;;;;;;5.40;2.50;;;;;;;16.08;75.45;99076.95;25091;1316;3054905;-62
2022/07/12 00:16:25;;;;;;;8.00;2.50;;;;;;;15.86;76.77;99076.77;25044;1316;3026352;-63
2022/07/12 00:18:54;;;;;;;8.40;2.90;;;;;;;16.43;74.92;99082.44;25071;1316;3026764;-65
2022/07/12 00:21:23;;;;;;;7.40;2.90;;;;;;;16.56;74.14;99080.92;25032;1315;3052280;-63
2022/07/12 00:23:52;;;;;;;7.10;2.50;;;;;;;16.24;74.67;99082.98;25086;1316;3027083;-62
2022/07/12 00:26:21;;;;;;;10.20;3.00;;;;;;;16.12;74.93;99083.99;25034;1316;3050614;-63
2022/07/12 00:28:50;;;;;;;4.50;2.40;;;;;;;15.91;75.51;99088.04;25111;1315;3028274;-62
2022/07/12 00:31:20;;;;;;;8.30;2.60;;;;;;;15.77;76.44;99090.83;25051;1316;3057835;-63
2022/07/12 00:33:49;;;;;;;13.70;2.40;;;;;;;16.29;75.14;99093.12;25049;1314;3026660;-64
2022/07/12 00:36:19;;;;;;;7.10;2.60;;;;;;;16.51;73.83;99091.63;25102;1315;3026623;-63
2022/07/12 00:38:49;;;;;;;10.50;2.40;;;;;;;16.39;73.74;99091.51;25087;1315;3056714;-62
2022/07/12 00:41:18;;;;;;;9.30;3.00;;;;;;;16.06;74.64;99097.42;25046;1315;3027765;-63
2022/07/12 00:43:47;;;;;;;6.30;2.60;;;;;;;15.91;74.83;99097.31;25050;1316;3051875;-63
2022/07/12 00:46:16;;;;;;;5.50;2.00;;;;;;;15.84;75.25;99104.88;25083;1316;3026657;-63
2022/07/12 00:48:45;;;;;;;7.40;2.70;;;;;;;16.37;74.45;99104.98;25043;1316;3051155;-63
2022/07/12 00:51:16;;;;;;;8.90;2.70;;;;;;;16.46;73.56;99107.83;25091;1316;3026669;-63
2022/07/12 00:53:46;;;;;;;5.20;2.70;;;;;;;16.45;73.48;99104.20;25088;1316;3049854;-63
2022/07/12 00:56:15;;;;;;;7.70;2.70;;;;;;;16.19;73.82;99112.17;25089;1315;3026876;-62
2022/07/12 00:58:44;;;;;;;8.50;2.40;;;;;;;16.04;73.96;99113.85;25071;1315;3069869;-61
2022/07/12 01:01:13;;;;;;;11.50;2.00;;;;;;;15.84;74.78;99118.13;25042;1315;3026941;-65
2022/07/12 01:03:42;;;;;;;7.10;2.10;;;;;;;16.16;74.55;99114.92;25099;1315;3026295;-62
2022/07/12 01:06:11;;;;;;;7.60;2.40;;;;;;;16.37;73.36;99112.55;25021;1314;3067575;-64
2022/07/12 01:08:41;;;;;;;5.60;2.60;;;;;;;16.39;73.02;99111.64;25058;1316;3026394;-65
2022/07/12 01:11:10;;;;;;;7.20;2.70;;;;;;;16.17;73.02;99114.81;25078;1316;3026849;-64
2022/07/12 01:13:39;;;;;;;8.90;2.60;;;;;;;15.90;74.01;99124.46;25042;1316;3071567;-63
2022/07/12 01:16:09;;;;;;;7.00;1.90;;;;;;;15.68;74.69;99123.21;25043;1316;3026525;-64
2022/07/12 01:18:38;;;;;;;13.30;2.30;;;;;;;16.03;74.24;99122.64;25044;1315;3026285;-62
2022/07/12 01:21:07;;;;;;;4.10;2.10;;;;;;;16.32;73.17;99126.20;25041;1316;3026889;-64
2022/07/12 01:23:37;;;;;;;7.70;2.80;;;;;;;16.28;72.95;99126.61;25040;1316;3026578;-64
2022/07/12 01:26:06;;;;;;;14.50;3.10;;;;;;;16.09;72.90;99134.70;25048;1316;3026605;-64
2022/07/12 01:28:35;;;;;;;8.60;2.80;;;;;;;15.91;73.16;99143.61;25045;1315;3054120;-65
2022/07/12 01:31:05;;;;;;;4.20;2.30;;;;;;;15.74;73.68;99144.23;25085;1315;3026924;-62
2022/07/12 01:33:34;;;;;;;7.80;3.10;;;;;;;15.69;74.72;99143.62;25075;1316;3054018;-64
2022/07/12 01:36:03;;;;;;;7.10;2.40;;;;;;;16.09;73.62;99147.86;25051;1315;3026320;-64
2022/07/12 01:38:33;;;;;;;13.90;2.90;;;;;;;16.14;72.93;99148.83;25063;1315;3048850;-65
2022/07/12 01:41:02;;;;;;;6.70;2.70;;;;;;;15.77;73.74;99152.11;25105;1315;3026731;-65
2022/07/12 01:43:31;;;;;;;6.20;2.40;;;;;;;15.62;74.19;99147.55;24996;1315;3070370;-68
2022/07/12 01:46:00;;;;;;;7.30;2.40;;;;;;;15.57;73.92;99148.48;25072;1315;3029428;-67
2022/07/12 01:48:30;;;;;;;6.40;2.40;;;;;;;15.37;75.35;99154.41;25027;1315;3027167;-65
2022/07/12 01:50:59;;;;;;;6.60;2.50;;;;;;;15.81;74.29;99155.41;25053;1315;3030234;-66
2022/07/12 01:53:28;;;;;;;5.40;2.30;;;;;;;16.16;72.89;99162.80;25017;1315;3051429;-65
2022/07/12 01:55:57;;;;;;;13.60;2.50;;;;;;;16.13;72.49;99167.51;25016;1315;3026957;-67
2022/07/12 01:58:26;;;;;;;7.80;2.40;;;;;;;15.83;73.04;99169.24;25073;1315;3069717;-67
2022/07/12 02:00:55;;;;;;;8.20;2.70;;;;;;;15.49;74.40;99175.64;25017;1317;3026222;-67
2022/07/12 02:03:23;;;;;;;3.40;1.70;;;;;;;15.29;75.63;99175.98;25022;1315;3051571;-65
2022/07/12 02:05:52;;;;;;;11.20;2.50;;;;;;;15.76;74.87;99178.98;25053;1315;3026819;-64
2022/07/12 02:08:21;;;;;;;7.80;2.30;;;;;;;16.10;73.69;99182.63;25023;1316;3053975;-64
2022/07/12 02:10:53;;;;;;;8.80;2.90;;;;;;;16.12;73.15;99185.42;25038;1315;3026292;-65
2022/07/12 02:13:22;;;;;;;11.20;4.30;;;;;;;15.84;73.90;99187.31;25082;1315;3026793;-65
2022/07/12 02:15:51;;;;;;;7.00;3.50;;;;;;;15.75;73.93;99188.76;25073;1316;3052309;-67
2022/07/12 02:18:20;;;;;;;9.50;3.30;;;;;;;15.56;74.72;99192.67;25209;1315;3026986;-68
2022/07/12 02:20:49;;;;;;;11.10;2.50;;;;;;;15.40;75.61;99191.23;25066;1315;3030582;-68
2022/07/12 02:23:18;;;;;;;9.50;2.60;;;;;;;15.75;74.88;99191.61;25105;1315;3055025;-62
2022/07/12 02:25:47;;;;;;;5.40;2.30;;;;;;;16.12;73.49;99191.27;25028;1315;3026497;-65
2022/07/12 02:28:16;;;;;;;12.80;3.20;;;;;;;16.12;72.94;99192.84;25081;1315;3052702;-67
2022/07/12 02:30:46;;;;;;;9.60;2.50;;;;;;;15.87;73.90;99201.23;25038;1315;3028377;-64
2022/07/12 02:33:19;;;;;;;5.70;3.00;;;;;;;15.60;74.84;99202.08;25077;1315;3058117;-66
2022/07/12 02:35:48;;;;;;;8.60;2.80;;;;;;;15.38;75.65;99201.80;25075;1315;3026537;-66
2022/07/12 02:38:20;;;;;;;13.60;2.70;;;;;;;15.20;76.36;99206.65;25049;1315;3026496;-65
2022/07/12 02:40:54;;;;;;;4.90;2.40;;;;;;;15.51;75.89;99206.02;25077;1316;3055367;-64
2022/07/12 02:43:25;;;;;;;10.80;3.30;;;;;;;15.94;73.84;99199.00;25020;1315;3052852;-62
2022/07/12 02:46:02;;;;;;;12.10;2.80;;;;;;;15.98;73.55;99202.48;25090;1315;3027002;-63
2022/07/12 02:48:31;;;;;;;7.10;3.50;;;;;;;15.55;74.86;99200.76;25045;1315;3050457;-62
2022/07/12 02:51:01;;;;;;;10.20;3.40;;;;;;;15.29;75.95;99200.27;25140;1315;3026464;-63
2022/07/12 02:53:30;;;;;;;6.70;2.80;;;;;;;15.11;76.53;99198.63;25086;1316;3026756;-61
2022/07/12 02:55:59;;;;;;;8.70;2.40;;;;;;;15.05;77.27;99199.30;25037;1315;3026385;-61
2022/07/12 02:58:28;;;;;;;6.30;2.60;;;;;;;15.86;75.21;99199.48;25059;1316;3070607;-62
2022/07/12 03:00:57;;;;;;;8.30;2.70;;;;;;;16.14;73.67;99200.40;25044;1315;3028559;-64
2022/07/12 03:03:26;;;;;;;10.50;3.70;;;;;;;16.10;73.37;99205.39;25091;1315;3051553;-62
2022/07/12 03:05:55;;;;;;;8.70;3.70;;;;;;;15.87;73.73;99208.25;25003;1315;3026123;-64
2022/07/12 03:08:25;;;;;;;7.40;3.30;;;;;;;15.65;74.76;99212.04;25069;1316;3054651;-63
2022/07/12 03:10:54;;;;;;;7.90;2.70;;;;;;;15.43;75.05;99213.75;25038;1315;3027407;-60
2022/07/12 03:13:25;;;;;;;6.50;2.50;;;;;;;15.36;75.80;99221.21;25029;1315;3050549;-63
2022/07/12 03:15:54;;;;;;;4.80;3.30;;;;;;;15.78;75.20;99220.11;25114;1315;3026886;-63
2022/07/12 03:18:23;;;;;;;6.80;2.80;;;;;;;16.09;73.50;99221.90;25004;1315;3026876;-64
2022/07/12 03:20:52;;;;;;;8.50;3.40;;;;;;;16.02;73.74;99225.99;25048;1315;3050849;-63
2022/07/12 03:23:21;;;;;;;5.40;3.60;;;;;;;15.89;73.75;99222.56;25031;1315;3028447;-63
2022/07/12 03:25:52;;;;;;;7.00;3.60;;;;;;;15.69;74.64;99230.82;25058;1315;3058775;-62
2022/07/12 03:28:21;;;;;;;8.30;3.00;;;;;;;15.60;74.80;99230.64;25015;1315;3026157;-66
2022/07/12 03:30:50;;;;;;;6.70;3.30;;;;;;;16.10;74.25;99234.39;25091;1315;3025843;-66
2022/07/12 03:33:20;;;;;;;7.80;3.50;;;;;;;16.57;72.33;99238.22;25101;1315;3058162;-67
2022/07/12 03:35:49;;;;;;;8.40;3.30;;;;;;;16.50;71.77;99245.21;24997;1315;3026149;-63
2022/07/12 03:38:18;;;;;;;6.20;3.10;;;;;;;16.28;72.12;99242.29;25119;1315;3026292;-62
2022/07/12 03:40:48;;;;;;;7.80;3.40;;;;;;;15.91;72.91;99245.33;25038;1315;3058394;-63
2022/07/12 03:43:17;;;;;;;4.90;3.50;;;;;;;15.83;73.41;99251.73;24995;1316;3025949;-62
2022/07/12 03:45:46;;;;;;;6.30;2.80;;;;;;;15.69;74.32;99256.57;25071;1315;3026500;-64
2022/07/12 03:48:16;;;;;;;7.30;2.90;;;;;;;16.27;73.69;99249.66;25033;1315;3058573;-65
2022/07/12 03:50:45;;;;;;;7.90;3.00;;;;;;;16.80;71.33;99252.41;25004;1315;3027284;-66
2022/07/12 03:53:14;;;;;;;8.10;3.10;;;;;;;16.74;70.74;99252.08;25087;1315;3026804;-64
2022/07/12 03:55:44;;;;;;;8.40;3.70;;;;;;;16.68;70.85;99256.86;25031;1315;3059246;-65
2022/07/12 03:58:13;;;;;;;10.80;3.50;;;;;;;16.45;71.56;99259.61;25037;1315;3026968;-65
2022/07/12 04:00:42;;;;;;;9.60;3.50;;;;;;;16.26;72.27;99262.65;25096;1315;3028735;-66
2022/07/12 04:03:12;;;;;;;8.60;2.90;;;;;;;16.09;73.15;99265.75;25070;1315;3055755;-65
2022/07/12 04:05:42;;;;;;;5.30;3.30;;;;;;;16.40;72.77;99265.80;25034;1315;3028832;-64
2022/07/12 04:08:10;;;;;;;7.70;3.60;;;;;;;16.78;71.19;99269.20;25087;1315;3029390;-70
2022/07/12 04:10:42;;;;;;;8.90;3.30;;;;;;;16.75;70.70;99269.11;25102;1315;3057569;-64
2022/07/12 04:13:11;;;;;;;11.20;3.30;;;;;;;16.74;70.66;99274.52;25024;1315;3026241;-64
2022/07/12 04:15:40;;;;;;;7.50;3.80;;;;;;;16.69;70.80;99270.36;25087;1315;3053992;-64
2022/07/12 04:18:10;;;;;;;8.00;3.20;;;;;;;16.57;71.44;99276.89;25089;1315;3026512;-66
2022/07/12 04:20:40;;;;;;;5.70;2.80;;;;;;;16.44;72.17;99282.16;25067;1316;3027550;-67
2022/07/12 04:23:09;;;;;;;6.50;2.80;;;;;;;16.88;71.40;99285.98;25024;1316;3026073;-67
2022/07/12 04:25:38;;;;;;;7.40;3.50;;;;;;;17.43;69.62;99284.11;25108;1316;3026861;-64
2022/07/12 04:28:07;;;;;;;10.50;3.70;;;;;;;17.60;68.74;99293.34;25039;1316;3026813;-69
2022/07/12 04:30:37;;;;;;;8.60;4.40;;;;;;;17.37;69.11;99293.45;25061;1314;3054839;-63
2022/07/12 04:33:06;;;;;;;7.50;3.70;;;;;;;16.87;70.24;99299.75;25076;1316;3026469;-68
2022/07/12 04:35:35;;;;;;;8.40;4.20;;;;;;;16.81;71.03;99297.41;25049;1316;3051757;-65
2022/07/12 04:38:04;;;;;;;10.70;4.70;;;;;;;16.68;72.03;99301.59;25077;1316;3028944;-70
2022/07/12 04:40:33;;;;;;;8.20;3.10;;;;;;;16.56;72.83;99307.59;25037;1316;3057882;-63
2022/07/12 04:43:02;;;;;;;10.70;4.00;;;;;;;17.07;71.90;99309.60;25064;1316;3027264;-65
2022/07/12 04:45:31;;;;;;;14.70;3.60;;;;;;;17.56;69.75;99304.17;25057;1316;3026763;-64
2022/07/12 04:48:00;;;;;;;8.10;4.20;;;;;;;17.63;69.32;99306.28;25087;1316;3058301;-67
2022/07/12 04:50:29;;;;;;;7.80;3.40;;;;;;;17.43;70.57;99308.49;25042;1316;3026619;-65
2022/07/12 04:52:58;;;;;;;7.50;3.90;;;;;;;17.44;69.27;99308.73;25127;1316;3055303;-66
2022/07/12 04:55:27;;;;;;;7.00;4.40;;;;;;;17.27;71.24;99313.70;25061;1316;3026791;-67
2022/07/12 04:57:56;;;;;;;7.10;4.40;;;;;;;17.20;71.48;99312.69;25092;1316;3053922;-67
2022/07/12 05:00:25;;;;;;;6.90;3.30;;;;;;;17.19;71.75;99310.51;25038;1316;3026837;-67
2022/07/12 05:02:54;;;;;;;7.40;3.40;;;;;;;17.79;69.75;99311.93;25106;1316;3052521;-68
2022/07/12 05:05:24;;;;;;;5.70;4.20;;;;;;;18.08;67.03;99313.14;25089;1314;3026547;-71
2022/07/12 05:07:54;;;;;;;7.20;3.80;;;;;;;18.09;66.98;99315.75;25035;1315;3026687;-68
2022/07/12 05:10:24;;;;;;;9.50;4.00;;;;;;;18.09;66.75;99311.29;25018;1316;3049437;-72
2022/07/12 05:12:53;;;;;;;5.50;3.60;;;;;;;17.90;66.69;99315.86;25096;1315;3026500;-68
2022/07/12 05:15:22;;;;;;;10.50;3.90;;;;;;;17.57;67.67;99320.84;25119;1315;3027220;-70
2022/07/12 05:17:52;;;;;;;10.20;3.40;;;;;;;17.50;67.64;99320.98;25111;1315;3048710;-70
2022/07/12 05:20:21;;;;;;;11.30;3.80;;;;;;;17.48;68.24;99324.00;25064;1315;3026488;-70
2022/07/12 05:22:50;;;;;;;8.20;3.90;;;;;;;17.38;69.94;99323.11;25106;1315;3070673;-62
2022/07/12 05:25:20;;;;;;;3.60;2.70;;;;;;;17.45;70.63;99328.34;25064;1313;3026423;-65
2022/07/12 05:27:49;;;;;;;6.40;2.90;;;;;;;18.11;67.63;99326.55;25062;1315;3028486;-62
2022/07/12 05:30:21;;;;;;;5.20;3.00;;;;;;;18.66;65.87;99328.23;24993;1315;3071291;-64
2022/07/12 05:32:50;;;;;;;10.00;3.40;;;;;;;18.70;64.92;99328.87;25102;1315;3026634;-65
2022/07/12 05:35:20;;;;;;;7.20;3.30;;;;;;;18.59;65.19;99332.27;25152;1314;3026419;-67
2022/07/12 05:37:49;;;;;;;6.20;3.60;;;;;;;18.58;65.53;99333.81;25084;1315;3027196;-65
2022/07/12 05:40:18;;;;;;;5.80;3.10;;;;;;;18.48;65.23;99333.30;25080;1315;3051139;-66
2022/07/12 05:42:47;;;;;;;6.80;3.40;;;;;;;18.39;63.66;99333.30;25173;1315;3026512;-65
2022/07/12 05:45:16;;;;;;;7.50;3.50;;;;;;;18.49;63.82;99334.33;25080;1316;3026439;-67
2022/07/12 05:47:45;;;;;;;5.70;2.70;;;;;;;18.44;63.68;99336.73;25046;1315;3048109;-69
2022/07/12 05:50:14;;;;;;;8.00;3.30;;;;;;;18.32;63.01;99336.65;25058;1316;3026991;-67
2022/07/12 05:55:31;;;;;;;3.50;2.50;;;;;;;18.35;62.03;99338.23;25021;1315;3052311;-66
2022/07/12 05:58:00;;;;;;;3.70;2.70;;;;;;;18.37;61.48;99343.40;25085;1315;3026968;-66
2022/07/12 06:00:29;;;;;;;8.30;3.30;;;;;;;18.34;62.44;99342.60;24974;1318;3068689;-64
2022/07/12 06:02:59;;;;;;;11.50;4.00;;;;;;;18.24;62.78;99340.40;25051;1315;3026756;-61
2022/07/12 06:05:28;;;;;;;6.10;3.10;;;;;;;18.30;63.50;99338.79;25057;1315;3026775;-67
2022/07/12 06:07:58;;;;;;;8.40;2.80;;;;;;;18.32;63.61;99343.37;25181;1316;3027169;-68
2022/07/12 06:10:27;;;;;;;5.40;3.20;;;;;;;18.39;63.70;99338.27;25159;1315;3026431;-68
2022/07/12 06:12:56;;;;;;;8.20;3.30;;;;;;;18.45;63.65;99334.27;25135;1316;3051526;-66
2022/07/12 06:15:25;;;;;;;6.40;2.50;;;;;;;18.53;62.44;99342.55;25147;1316;3026277;-68
2022/07/12 06:17:54;;;;;;;5.50;3.00;;;;;;;18.61;61.48;99343.20;25127;1316;3048716;-70
2022/07/12 06:20:23;;;;;;;6.30;2.60;;;;;;;18.64;61.87;99338.68;25154;1315;3028061;-69
2022/07/12 06:22:52;;;;;;;6.20;3.30;;;;;;;18.53;61.71;99343.63;25126;1316;3068554;-68
2022/07/12 06:25:22;;;;;;;4.90;2.80;;;;;;;18.54;60.87;99341.02;25138;1316;3026234;-70
2022/07/12 06:27:51;;;;;;;5.80;3.20;;;;;;;18.63;61.13;99339.84;25181;1316;3053933;-68
2022/07/12 06:30:21;;;;;;;6.80;2.60;;;;;;;18.74;60.86;99338.06;25123;1316;3026255;-67
2022/07/12 06:32:49;;;;;;;4.50;2.50;;;;;;;18.89;60.56;99342.55;25159;1315;3052087;-68
2022/07/12 06:35:19;;;;;;;5.80;3.10;;;;;;;19.00;59.94;99340.46;25120;1315;3027969;-69
2022/07/12 06:37:47;;;;;;;5.60;3.30;;;;;;;19.13;59.79;99340.88;25162;1316;3049334;-68
2022/07/12 06:40:17;;;;;;;7.20;2.80;;;;;;;19.12;59.73;99342.98;25135;1316;3027795;-68
2022/07/12 06:42:46;;;;;;;14.10;3.50;;;;;;;19.13;60.25;99344.27;25124;1316;3057042;-68
2022/07/12 06:45:15;;;;;;;11.30;3.90;;;;;;;19.08;61.21;99345.12;25093;1314;3027091;-67
2022/07/12 06:47:44;;;;;;;7.10;3.30;;;;;;;19.14;61.33;99342.75;25155;1316;3052265;-69
2022/07/12 06:50:15;;;;;;;8.20;3.70;;;;;;;19.06;61.02;99347.73;25116;1316;3027515;-69
2022/07/12 06:52:44;;;;;;;5.70;3.00;;;;;;;19.25;60.68;99344.84;25611;1316;3026661;-68
2022/07/12 06:55:14;;;;;;;5.20;3.10;;;;;;;19.43;60.03;99350.20;25897;1316;3026730;-66
2022/07/12 06:57:44;;;;;;;7.70;3.30;;;;;;;19.47;59.34;99349.86;25963;1316;3055841;-69
2022/07/12 07:00:13;;;;;;;8.60;2.60;;;;;;;19.57;59.51;99342.42;25373;1316;3026467;-70
2022/07/12 07:02:42;;;;;;;8.30;3.00;;;;;;;19.71;56.71;99339.56;25163;1316;3026723;-68
2022/07/12 07:05:15;;;;;;;9.80;3.70;;;;;;;19.66;58.98;99345.98;25127;1314;3058317;-71
2022/07/12 07:07:44;;;;;;;8.90;3.40;;;;;;;19.76;57.95;99347.66;25114;1316;3027173;-70
2022/07/12 07:10:14;;;;;;;4.20;2.70;;;;;;;19.73;56.70;99349.84;25159;1316;3028476;-69
2022/07/12 07:12:43;;;;;;;5.40;2.60;;;;;;;19.80;56.18;99360.91;25150;1316;3058490;-68
2022/07/12 07:15:15;;;;;;;5.30;2.90;;;;;;;19.77;55.86;99355.37;25124;1316;3026383;-70
2022/07/12 07:17:45;;;;;;;4.20;2.40;;;;;;;19.66;55.26;99359.29;25102;1316;3055535;-66
2022/07/12 07:20:15;;;;;;;4.50;2.60;;;;;;;19.71;56.01;99354.33;25096;1316;3027488;-71
2022/07/12 07:22:44;;;;;;;9.30;2.60;;;;;;;19.79;56.22;99355.15;25107;1316;3026921;-68
2022/07/12 07:25:14;;;;;;;7.00;2.80;;;;;;;19.94;55.27;99346.05;25138;1316;3026665;-69
2022/07/12 07:27:44;;;;;;;5.10;2.40;;;;;;;20.05;55.80;99344.79;25133;1314;3056179;-69
2022/07/12 07:33:00;;;;;;;5.00;2.60;;;;;;;20.20;52.89;99363.05;25116;1315;3055471;-68
2022/07/12 07:35:29;;;;;;;8.80;2.80;;;;;;;20.20;54.28;99364.69;25157;1316;3026097;-67
2022/07/12 07:37:58;;;;;;;6.50;2.60;;;;;;;20.20;54.66;99358.45;25120;1316;3055295;-70
2022/07/12 07:40:28;;;;;;;9.20;3.20;;;;;;;20.35;54.99;99357.00;25132;1316;3028293;-67
2022/07/12 07:42:57;;;;;;;6.80;3.40;;;;;;;20.46;55.02;99353.32;25122;1315;3051106;-69
2022/07/12 07:45:26;;;;;;;11.00;3.60;;;;;;;20.58;54.54;99363.24;25121;1316;3027043;-68
2022/07/12 07:47:55;;;;;;;6.40;2.80;;;;;;;20.63;54.08;99356.41;25088;1315;3066655;-66
2022/07/12 07:50:24;;;;;;;5.40;2.10;;;;;;;20.70;53.35;99353.13;25150;1315;3026707;-69
2022/07/12 07:52:53;;;;;;;5.10;2.50;;;;;;;20.93;53.42;99353.21;25092;1316;3053821;-68
2022/07/12 07:55:22;;;;;;;13.30;2.60;;;;;;;20.93;52.40;99353.81;25151;1315;3026445;-67
2022/07/12 07:57:51;;;;;;;8.90;2.50;;;;;;;20.90;53.13;99356.10;25104;1316;3054007;-68
2022/07/12 08:00:20;;;;;;;18.10;2.60;;;;;;;21.04;53.73;99356.20;25153;1315;3029607;-69
2022/07/12 08:02:49;;;;;;;10.00;2.70;;;;;;;21.00;52.84;99361.04;25102;1316;3051910;-69
2022/07/12 08:05:18;;;;;;;8.70;2.30;;;;;;;20.91;53.02;99361.79;25122;1315;3027478;-69
2022/07/12 08:07:47;;;;;;;4.50;2.10;;;;;;;21.05;52.40;99362.36;25143;1316;3028838;-68
2022/07/12 08:10:17;;;;;;;4.30;2.00;;;;;;;20.97;50.54;99368.27;25089;1316;3051951;-70
2022/07/12 08:12:59;;;;;;;3.60;1.70;;;;;;;20.73;50.50;99377.03;25192;1316;3055410;-70
2022/07/12 08:15:29;;;;;;;5.90;1.70;;;;;;;20.79;50.17;99368.04;25192;1315;3026930;-71
2022/07/12 08:17:59;;;;;;;3.70;1.60;;;;;;;20.92;50.06;99367.59;25115;1315;3026829;-69
2022/07/12 08:20:28;;;;;;;4.80;2.00;;;;;;;21.08;50.64;99365.75;25168;1315;3026440;-68
2022/07/12 08:22:57;;;;;;;9.10;2.00;;;;;;;21.14;49.22;99369.22;25125;1315;3053464;-69
2022/07/12 08:25:26;;;;;;;7.80;2.00;;;;;;;21.22;48.93;99365.20;25163;1315;3026187;-73
2022/07/12 08:27:55;;;;;;;3.40;1.90;;;;;;;21.20;50.12;99373.60;25115;1315;3026562;-71
2022/07/12 08:30:24;;;;;;;4.20;1.80;;;;;;;21.29;49.27;99379.51;25118;1315;3053870;-71
2022/07/12 08:32:55;;;;;;;4.10;1.70;;;;;;;21.40;49.13;99377.84;25098;1315;3026660;-73
2022/07/12 08:35:24;;;;;;;4.80;1.80;;;;;;;21.40;48.58;99376.95;25144;1316;3051907;-72
2022/07/12 08:37:53;;;;;;;6.20;1.90;;;;;;;21.53;48.52;99384.25;25146;1316;3026476;-72
2022/07/12 08:40:22;;;;;;;3.00;1.70;;;;;;;21.47;48.44;99380.45;25131;1316;3051312;-69
2022/07/12 08:42:51;;;;;;;6.30;1.60;;;;;;;21.57;48.25;99386.74;25182;1315;3028765;-71
2022/07/12 08:45:20;;;;;;;3.30;1.90;;;;;;;21.62;47.79;99389.42;25218;1315;3027034;-71
2022/07/12 08:47:50;;;;;;;3.40;1.70;;;;;;;21.59;47.15;99392.95;25138;1316;3026978;-69
2022/07/12 08:50:19;;;;;;;7.20;1.70;;;;;;;21.76;46.18;99387.89;25106;1316;3052005;-73
2022/07/12 08:52:50;;;;;;;6.50;2.30;;;;;;;21.88;46.87;99393.05;25170;1315;3026517;-71
2022/07/12 08:55:26;;;;;;;2.30;1.30;;;;;;;21.79;46.53;99385.40;25136;1316;3026431;-70
2022/07/12 08:57:57;;;;;;;2.50;1.60;;;;;;;21.60;46.80;99387.77;25103;1315;3048019;-72
2022/07/12 09:00:27;;;;;;;3.90;1.40;;;;;;;21.59;46.31;99400.95;25178;1315;3026545;-71
2022/07/12 09:02:58;;;;;;;7.90;1.50;;;;;;;21.67;45.59;99394.27;25111;1316;3027099;-71
2022/07/12 09:05:28;;;;;;;5.80;1.90;;;;;;;21.83;45.39;99390.66;25129;1315;3026441;-71
2022/07/12 09:08:04;;;;;;;3.40;1.80;;;;;;;22.02;45.09;99385.23;25158;1315;3026478;-70
2022/07/12 09:10:58;;;;;;;9.10;1.50;;;;;;;22.23;45.69;99385.11;25167;1316;3053025;-72
2022/07/12 09:13:47;;;;;;;6.10;1.40;;;;;;;22.18;45.32;99391.21;25119;1315;3052504;-71
2022/07/12 09:16:16;;;;;;;3.60;1.30;;;;;;;22.04;44.44;99392.81;25157;1314;3071085;-70
2022/07/12 09:18:46;;;;;;;2.10;1.30;;;;;;;22.03;44.09;99397.66;25139;1315;3026443;-70
2022/07/12 09:21:23;;;;;;;2.90;1.60;;;;;;;22.14;44.17;99393.73;25129;1318;3026576;-73
2022/07/12 09:23:54;;;;;;;2.30;1.30;;;;;;;22.12;44.04;99388.91;25140;1315;3069579;-71
2022/07/12 09:26:30;;;;;;;3.90;1.40;;;;;;;22.00;44.38;99384.55;25119;1316;3026477;-71
2022/07/12 09:29:13;;;;;;;6.10;1.70;;;;;;;22.14;44.67;99389.48;25145;1316;3051952;-73
2022/07/12 09:37:20;;;;;;;3.70;1.40;;;;;;;22.46;42.94;99394.52;25216;1316;3052771;-73
2022/07/12 09:39:49;;;;;;;6.30;1.20;;;;;;;22.29;42.88;99399.25;25160;1315;3028087;-71
2022/07/12 09:42:18;;;;;;;12.30;1.30;;;;;;;22.20;43.75;99388.03;25060;1315;3026954;-70
2022/07/12 09:44:47;;;;;;;16.30;2.20;;;;;;;22.36;44.33;99393.67;25145;1316;3050619;-70
2022/07/12 09:47:16;;;;;;;3.50;1.40;;;;;;;22.35;43.59;99399.27;25053;1316;3026836;-72
2022/07/12 09:49:45;;;;;;;4.30;1.30;;;;;;;22.29;43.87;99393.10;25164;1315;3058869;-70
2022/07/12 09:52:21;;;;;;;4.30;1.40;;;;;;;22.27;43.60;99396.58;25100;1314;3026620;-71
2022/07/12 09:54:52;;;;;;;9.90;3.70;;;;;;;22.36;43.32;99391.36;25186;1316;3052894;-71
2022/07/12 09:57:31;;;;;;;5.80;1.40;;;;;;;22.57;41.87;99392.45;25165;1315;3027926;-72
2022/07/12 10:00:07;;;;;;;10.80;1.50;;;;;;;22.72;41.82;99391.55;25134;1316;3069269;-68
2022/07/12 10:02:44;;;;;;;5.30;1.50;;;;;;;22.96;42.05;99391.00;25141;1316;3052001;-70
2022/07/12 10:05:13;;;;;;;10.20;1.40;;;;;;;22.89;42.24;99393.05;25132;1315;3026235;-71
2022/07/12 10:07:42;;;;;;;7.80;1.50;;;;;;;22.89;41.29;99394.83;25127;1316;3070096;-71
2022/07/12 10:10:11;;;;;;;3.90;1.30;;;;;;;22.75;41.75;99404.65;25163;1316;3026440;-73
2022/07/12 10:12:40;;;;;;;3.40;1.40;;;;;;;22.68;41.81;99398.66;25116;1316;3027402;-71
2022/07/12 10:15:15;;;;;;;2.60;1.50;;;;;;;22.77;41.54;99399.80;25173;1315;3071340;-70
2022/07/12 10:17:50;;;;;;;4.70;1.50;;;;;;;23.14;41.21;99395.31;25162;1315;3051580;-69
2022/07/12 10:20:24;;;;;;;4.70;1.60;;;;;;;23.22;41.26;99394.38;25161;1316;3055222;-67
2022/07/12 10:23:13;;;;;;;5.30;1.60;;;;;;;23.20;40.43;99390.83;25161;1315;3051882;-69
2022/07/12 10:25:42;;;;;;;5.30;1.40;;;;;;;22.97;40.95;99391.86;25146;1315;3057369;-72
2022/07/12 10:28:12;;;;;;;4.50;1.70;;;;;;;22.94;41.35;99393.46;25156;1315;3026725;-68
2022/07/12 10:30:50;;;;;;;4.10;1.40;;;;;;;23.03;41.83;99388.86;25051;1318;3028533;-67
2022/07/12 10:33:20;;;;;;;6.50;1.30;;;;;;;23.32;41.53;99391.39;25174;1316;3051506;-69
2022/07/12 10:36:07;;;;;;;4.80;1.60;;;;;;;23.39;41.33;99392.02;25115;1314;3026244;-68
2022/07/12 10:38:37;;;;;;;8.40;1.40;;;;;;;23.53;40.54;99382.86;25158;1315;3049621;-69
2022/07/12 10:41:18;;;;;;;4.40;1.50;;;;;;;23.65;40.47;99384.41;25158;1316;3028996;-68
2022/07/12 10:44:05;;;;;;;2.90;1.30;;;;;;;23.82;40.48;99387.77;25163;1315;3068892;-70
2022/07/12 10:46:36;;;;;;;5.50;1.60;;;;;;;24.00;39.75;99382.14;25199;1316;3048079;-71
2022/07/12 10:49:27;;;;;;;6.10;1.60;;;;;;;24.20;38.41;99373.31;25194;1316;3026889;-70
2022/07/12 10:52:11;;;;;;;2.70;1.10;;;;;;;24.21;37.42;99380.19;25157;1316;3051795;-68
2022/07/12 10:54:42;;;;;;;3.70;1.50;;;;;;;23.93;36.28;99384.55;25224;1315;3057493;-70
2022/07/12 10:57:12;;;;;;;5.70;1.60;;;;;;;23.81;37.25;99384.64;25260;1312;3026265;-65
2022/07/12 10:59:42;;;;;;;4.90;1.70;;;;;;;24.08;37.17;99380.35;25273;1312;3027126;-67
2022/07/12 11:02:11;;;;;;;3.10;1.40;;;;;;;24.12;36.61;99379.60;25309;1312;3026828;-65
2022/07/12 11:04:47;;;;;;;4.40;1.50;;;;;;;24.20;36.01;99380.33;25323;1315;3026308;-67
2022/07/12 11:07:18;;;;;;;3.70;1.40;;;;;;;24.34;36.07;99383.55;25404;1312;3055960;-64
2022/07/12 11:09:51;;;;;;;5.90;1.40;;;;;;;24.32;36.35;99379.97;24770;1312;3708154;-68
2022/07/12 11:12:28;;;;;;;5.70;1.20;;;;;;;24.26;36.34;99378.45;25165;1312;3070489;-66
2022/07/12 11:14:59;;;;;;;2.80;1.50;;;;;;;24.37;36.29;99376.98;25225;1313;3048939;-66
2022/07/12 11:17:30;;;;;;;5.20;1.60;;;;;;;24.62;35.97;99371.48;25558;1312;3027391;-67
2022/07/12 11:20:11;;;;;;;2.90;1.40;;;;;;;24.61;36.43;99378.48;25813;1312;3027267;-67
2022/07/12 11:22:43;;;;;;;7.10;1.70;;;;;;;24.14;36.70;99386.90;25899;1312;3056710;-67
2022/07/12 11:25:13;;;;;;;2.10;1.20;;;;;;;23.97;36.93;99380.86;25399;1313;3026787;-65
2022/07/12 11:27:42;;;;;;;6.70;1.30;;;;;;;23.98;36.77;99386.27;25284;1314;3026346;-69
2022/07/12 11:30:13;;;;;;;2.10;1.50;;;;;;;23.89;36.82;99381.86;25202;1316;3026977;-66
2022/07/12 11:32:44;;;;;;;5.00;1.50;;;;;;;23.81;36.92;99381.23;25245;1313;3026403;-67
2022/07/12 11:35:20;;;;;;;11.80;1.70;;;;;;;23.60;36.93;99381.35;25218;1312;3026371;-68
2022/07/12 11:37:54;;;;;;;4.90;1.20;;;;;;;23.71;36.71;99387.33;25171;1313;3051248;-67
2022/07/12 11:40:28;;;;;;;2.70;1.30;;;;;;;24.08;36.40;99374.03;25171;1316;3068854;-65
2022/07/12 11:42:59;;;;;;;6.50;1.30;;;;;;;24.35;35.65;99378.45;25248;1313;3048398;-65